Serra Dourada, Brazil
Current Conditions -  °F | °C
As of 9:00 PM on Thursday 18 Dec 2014 (Local Time) from SBQV Reporting Station
Broken Clouds Broken Clouds  
Wind Chill: 68°   Ceiling: 600
Heat Index: 68°   Visibility: 6mi
Dew Point: 68°   Wind: 7mph
Humidity: 100%   Direction: 60°ENE
Pressure: 30"   Gusts: NA
Location:  12.76°S, 43.95°W
Report Text: SBQV 190000Z 06006KT 9999 BKN006 20/20 Q1016
Loading
Personal Weather Stations






























Interactive Weather Map New forecast layout! Learn more

10-Day Weather Forecast

Advertisements
Track Severe Weather on mobile